Walsall, United Kingdom
Current Conditions -  °F | °C
As of 2:20 PM on Monday 26 Jan 2015 (Local Time) from EGBB Reporting Station
Broken Clouds Broken Clouds  
Wind Chill:   Ceiling: 3600
Heat Index:   Visibility: 6mi
Dew Point:   Wind: 13mph
Humidity: 66%   Direction: 300°WNW
Pressure: 30.24"   Gusts: NA
Location:  52.59°N, 1.98°W
Report Text: EGBB 261420Z 30011KT 9999 FEW031 BKN036 07/01 Q1024
Loading
Personal Weather Stations






























Interactive Weather Map New forecast layout! Learn more

10-Day Weather Forecast

Advertisements
Track Severe Weather on mobile